메인 페이지
METAR-TAF:

METAR-TAF

공항 :

블라디보스토크 국제공항

블라디보스토크, 러시아

위도: 43-07N, 경도: 131-56E, 고도: 184m

현재 날씨관측

예보는 19분 전, 21:30시(UTC)에 발표되었습니다.
12kt
온도 11°C
습도 94%
기압 1003 hPa
시정: 9000m
고도 2600ft 상공 구름 많음, 적란운.
약한소나기

METAR: UHWW 222130Z 26006MPS 9000 -SHRA BKN026CB 11/10 Q1003 R25L/290160 NOSIG RMK QFE751

시각: 07:49 (21:49 UTC)

예보

예보는 1 시간 49분 전, 20:00시(UTC)에 발표되었습니다.
예보 대상 시간: 22일 21시부터 23일 21시까지 (UTC)
북서17kt
시정: 3100m
고도 1100ft 상공 구름 많음
고도 1500ft 상공 구름 많음, 적란운.
약한소나기
일시적
22일 21시부터 23일 06시까지 (UTC)
북서23kt, 순간 최대 풍속 33kt
고도 500ft 상공 구름 많음
23일 0600시부터 (UTC)
서남서6kt
시정 10km 이상
고도 2500ft 상공 구름 많음, 적란운.
일시적
23일 06시부터 23일 21시까지 (UTC)
시정: 3100m
고도 1300ft 상공 구름 많음, 적란운.
약한소나기

TAF: UHWW 222000Z 2221/2321 31009MPS 3100 -SHRA BKN011 BKN015CB TEMPO 2221/2306 32012G17MPS BKN005 FM230600 24003MPS 9999 BKN025CB TEMPO 2306/2321 3100 -SHRA BKN013CB

4,000개 이상의 공항 관측 자료 및 예보 (METAR 및 TAF 보고).

지도상에서 검색 가능한 기상관측소가 노란 점과 빨간 점으로 표시되어 있습니다.

기상관측소 명을 보려면 표시 위로 마우스를 이동하세요.

날씨 관측과 예보를 보려면 클릭하세요.

지도 변경 : 확대하려면 엑스 표시가 있는 녹색 버튼, 축소하려면 빼기 표시가 있는 녹색 버튼, 다음 페이지의 지도를 보려면 녹색 화살표를 클릭하세요.


METAR-TAF: